sensor_id;sensor_type;location;lat;lon;timestamp;temperature;humidity
39849;DHT22;25518;47.878;15.914;2023-07-13T00:01:54;16.90;99.90
39849;DHT22;25518;47.878;15.914;2023-07-13T00:04:44;16.80;99.90
39849;DHT22;25518;47.878;15.914;2023-07-13T00:07:35;16.80;99.90
39849;DHT22;25518;47.878;15.914;2023-07-13T00:10:25;16.90;99.90
39849;DHT22;25518;47.878;15.914;2023-07-13T00:13:15;16.90;99.90
39849;DHT22;25518;47.878;15.914;2023-07-13T00:16:08;16.90;99.90
39849;DHT22;25518;47.878;15.914;2023-07-13T00:18:57;16.80;99.90
39849;DHT22;25518;47.878;15.914;2023-07-13T00:21:49;16.90;99.90
39849;DHT22;25518;47.878;15.914;2023-07-13T00:24:39;15.20;99.90
39849;DHT22;25518;47.878;15.914;2023-07-13T00:27:31;17.10;99.90
39849;DHT22;25518;47.878;15.914;2023-07-13T00:30:21;17.10;99.90
39849;DHT22;25518;47.878;15.914;2023-07-13T00:33:11;17.00;99.90
39849;DHT22;25518;47.878;15.914;2023-07-13T00:36:01;17.00;99.90
39849;DHT22;25518;47.878;15.914;2023-07-13T00:38:50;16.90;99.90
39849;DHT22;25518;47.878;15.914;2023-07-13T00:41:40;17.10;99.90
39849;DHT22;25518;47.878;15.914;2023-07-13T00:44:30;17.20;99.90
39849;DHT22;25518;47.878;15.914;2023-07-13T00:47:20;17.20;99.90
39849;DHT22;25518;47.878;15.914;2023-07-13T00:50:12;17.20;99.90
39849;DHT22;25518;47.878;15.914;2023-07-13T00:53:03;17.50;99.90
39849;DHT22;25518;47.878;15.914;2023-07-13T00:55:53;17.40;99.90
39849;DHT22;25518;47.878;15.914;2023-07-13T00:58:44;17.20;99.90
39849;DHT22;25518;47.878;15.914;2023-07-13T01:01:34;17.20;99.90
39849;DHT22;25518;47.878;15.914;2023-07-13T01:04:26;17.30;99.90
39849;DHT22;25518;47.878;15.914;2023-07-13T01:07:16;17.30;99.90
39849;DHT22;25518;47.878;15.914;2023-07-13T01:10:38;17.20;99.90
39849;DHT22;25518;47.878;15.914;2023-07-13T01:13:17;17.20;99.90
39849;DHT22;25518;47.878;15.914;2023-07-13T01:16:17;17.10;99.90
39849;DHT22;25518;47.878;15.914;2023-07-13T01:19:19;17.10;99.90
39849;DHT22;25518;47.878;15.914;2023-07-13T01:22:16;17.00;99.90
39849;DHT22;25518;47.878;15.914;2023-07-13T01:25:07;16.70;99.90
39849;DHT22;25518;47.878;15.914;2023-07-13T01:27:57;16.80;99.90
39849;DHT22;25518;47.878;15.914;2023-07-13T01:30:47;16.60;99.90
39849;DHT22;25518;47.878;15.914;2023-07-13T01:33:39;16.70;99.90
39849;DHT22;25518;47.878;15.914;2023-07-13T01:36:29;16.90;99.90
39849;DHT22;25518;47.878;15.914;2023-07-13T01:39:21;17.00;99.90
39849;DHT22;25518;47.878;15.914;2023-07-13T01:42:11;16.90;99.90
39849;DHT22;25518;47.878;15.914;2023-07-13T01:45:00;16.50;99.90
39849;DHT22;25518;47.878;15.914;2023-07-13T01:47:50;16.90;99.90
39849;DHT22;25518;47.878;15.914;2023-07-13T01:50:40;16.90;99.90
39849;DHT22;25518;47.878;15.914;2023-07-13T01:53:29;17.00;99.90
39849;DHT22;25518;47.878;15.914;2023-07-13T01:56:19;16.90;99.90
39849;DHT22;25518;47.878;15.914;2023-07-13T01:59:09;16.90;99.90
39849;DHT22;25518;47.878;15.914;2023-07-13T02:01:59;17.00;99.90
39849;DHT22;25518;47.878;15.914;2023-07-13T02:04:48;16.90;99.90
39849;DHT22;25518;47.878;15.914;2023-07-13T02:07:39;17.00;99.90
39849;DHT22;25518;47.878;15.914;2023-07-13T02:10:28;16.70;99.90
39849;DHT22;25518;47.878;15.914;2023-07-13T02:13:18;17.10;99.90
39849;DHT22;25518;47.878;15.914;2023-07-13T02:16:07;15.10;99.90
39849;DHT22;25518;47.878;15.914;2023-07-13T02:18:57;17.10;99.90
39849;DHT22;25518;47.878;15.914;2023-07-13T02:21:48;17.10;99.90
39849;DHT22;25518;47.878;15.914;2023-07-13T02:24:38;16.90;99.90
39849;DHT22;25518;47.878;15.914;2023-07-13T02:27:27;16.90;99.90
39849;DHT22;25518;47.878;15.914;2023-07-13T02:30:17;17.10;99.90
39849;DHT22;25518;47.878;15.914;2023-07-13T02:33:07;17.10;99.90
39849;DHT22;25518;47.878;15.914;2023-07-13T02:35:57;17.10;99.90
39849;DHT22;25518;47.878;15.914;2023-07-13T02:38:49;17.10;99.90
39849;DHT22;25518;47.878;15.914;2023-07-13T02:41:39;17.10;99.90
39849;DHT22;25518;47.878;15.914;2023-07-13T02:44:28;17.10;99.90
39849;DHT22;25518;47.878;15.914;2023-07-13T02:47:18;17.20;99.90
39849;DHT22;25518;47.878;15.914;2023-07-13T02:50:08;17.30;99.90
39849;DHT22;25518;47.878;15.914;2023-07-13T02:52:58;17.30;99.90
39849;DHT22;25518;47.878;15.914;2023-07-13T02:55:48;17.50;99.90
39849;DHT22;25518;47.878;15.914;2023-07-13T02:58:37;17.40;99.90
39849;DHT22;25518;47.878;15.914;2023-07-13T03:18:23;17.30;99.90
39849;DHT22;25518;47.878;15.914;2023-07-13T03:21:12;17.40;99.90
39849;DHT22;25518;47.878;15.914;2023-07-13T03:24:02;17.30;99.90
39849;DHT22;25518;47.878;15.914;2023-07-13T03:26:52;17.20;99.90
39849;DHT22;25518;47.878;15.914;2023-07-13T03:29:41;17.20;99.90
39849;DHT22;25518;47.878;15.914;2023-07-13T03:32:32;17.30;99.90
39849;DHT22;25518;47.878;15.914;2023-07-13T03:35:21;17.50;99.90
39849;DHT22;25518;47.878;15.914;2023-07-13T03:38:11;17.60;99.90
39849;DHT22;25518;47.878;15.914;2023-07-13T03:41:00;17.70;99.90
39849;DHT22;25518;47.878;15.914;2023-07-13T03:43:51;16.30;99.90
39849;DHT22;25518;47.878;15.914;2023-07-13T03:46:40;17.30;99.90
39849;DHT22;25518;47.878;15.914;2023-07-13T03:49:30;17.30;99.90
39849;DHT22;25518;47.878;15.914;2023-07-13T03:52:20;17.40;99.90
39849;DHT22;25518;47.878;15.914;2023-07-13T03:55:10;17.20;99.90
39849;DHT22;25518;47.878;15.914;2023-07-13T03:58:23;17.50;99.90
39849;DHT22;25518;47.878;15.914;2023-07-13T04:01:11;17.40;99.90
39849;DHT22;25518;47.878;15.914;2023-07-13T04:04:01;17.50;99.90
39849;DHT22;25518;47.878;15.914;2023-07-13T04:06:51;17.60;99.90
39849;DHT22;25518;47.878;15.914;2023-07-13T04:09:42;17.80;99.90
39849;DHT22;25518;47.878;15.914;2023-07-13T04:12:32;17.90;99.90
39849;DHT22;25518;47.878;15.914;2023-07-13T04:15:21;18.00;99.90
39849;DHT22;25518;47.878;15.914;2023-07-13T04:18:11;18.10;99.90
39849;DHT22;25518;47.878;15.914;2023-07-13T04:21:01;18.10;99.90
39849;DHT22;25518;47.878;15.914;2023-07-13T04:23:51;18.20;99.90
39849;DHT22;25518;47.878;15.914;2023-07-13T04:26:40;17.90;99.90
39849;DHT22;25518;47.878;15.914;2023-07-13T04:29:30;17.90;99.90
39849;DHT22;25518;47.878;15.914;2023-07-13T04:32:19;18.00;99.90
39849;DHT22;25518;47.878;15.914;2023-07-13T04:35:09;18.00;99.90
39849;DHT22;25518;47.878;15.914;2023-07-13T04:37:59;17.90;99.90
39849;DHT22;25518;47.878;15.914;2023-07-13T04:40:48;17.80;99.90
39849;DHT22;25518;47.878;15.914;2023-07-13T04:43:38;17.90;99.90
39849;DHT22;25518;47.878;15.914;2023-07-13T04:46:28;17.90;99.90
39849;DHT22;25518;47.878;15.914;2023-07-13T04:49:17;18.00;99.90
39849;DHT22;25518;47.878;15.914;2023-07-13T04:52:08;17.90;99.90
39849;DHT22;25518;47.878;15.914;2023-07-13T04:54:57;18.00;99.90
39849;DHT22;25518;47.878;15.914;2023-07-13T04:57:47;18.00;99.90
39849;DHT22;25518;47.878;15.914;2023-07-13T05:00:37;18.00;99.90
39849;DHT22;25518;47.878;15.914;2023-07-13T05:03:27;16.80;99.90
39849;DHT22;25518;47.878;15.914;2023-07-13T05:06:16;18.10;99.90
39849;DHT22;25518;47.878;15.914;2023-07-13T05:09:06;18.20;99.90
39849;DHT22;25518;47.878;15.914;2023-07-13T05:11:56;18.30;99.90
39849;DHT22;25518;47.878;15.914;2023-07-13T05:14:46;18.30;99.90
39849;DHT22;25518;47.878;15.914;2023-07-13T05:17:35;18.20;99.90
39849;DHT22;25518;47.878;15.914;2023-07-13T05:20:25;18.10;99.90
39849;DHT22;25518;47.878;15.914;2023-07-13T05:23:15;18.10;99.90
39849;DHT22;25518;47.878;15.914;2023-07-13T05:26:05;18.10;99.90
39849;DHT22;25518;47.878;15.914;2023-07-13T05:28:54;18.10;99.90
39849;DHT22;25518;47.878;15.914;2023-07-13T05:31:44;18.10;99.90
39849;DHT22;25518;47.878;15.914;2023-07-13T05:34:34;18.10;99.90
39849;DHT22;25518;47.878;15.914;2023-07-13T05:37:23;18.20;99.90
39849;DHT22;25518;47.878;15.914;2023-07-13T05:40:13;18.10;99.90
39849;DHT22;25518;47.878;15.914;2023-07-13T05:43:03;18.30;99.90
39849;DHT22;25518;47.878;15.914;2023-07-13T05:45:56;18.30;99.90
39849;DHT22;25518;47.878;15.914;2023-07-13T05:48:46;18.30;99.90
39849;DHT22;25518;47.878;15.914;2023-07-13T05:51:36;18.20;99.90
39849;DHT22;25518;47.878;15.914;2023-07-13T05:54:26;18.10;99.90
39849;DHT22;25518;47.878;15.914;2023-07-13T05:57:15;18.10;99.90
39849;DHT22;25518;47.878;15.914;2023-07-13T06:00:06;18.20;99.90
39849;DHT22;25518;47.878;15.914;2023-07-13T06:02:56;16.90;99.90
39849;DHT22;25518;47.878;15.914;2023-07-13T06:05:47;18.30;99.90
39849;DHT22;25518;47.878;15.914;2023-07-13T06:08:37;18.20;99.90
39849;DHT22;25518;47.878;15.914;2023-07-13T06:11:27;18.20;99.90
39849;DHT22;25518;47.878;15.914;2023-07-13T06:14:19;18.20;99.90
39849;DHT22;25518;47.878;15.914;2023-07-13T06:17:09;18.30;99.90
39849;DHT22;25518;47.878;15.914;2023-07-13T06:19:59;18.50;99.90
39849;DHT22;25518;47.878;15.914;2023-07-13T06:22:49;18.60;99.90
39849;DHT22;25518;47.878;15.914;2023-07-13T06:25:38;17.90;99.90
39849;DHT22;25518;47.878;15.914;2023-07-13T06:28:29;18.70;99.90
39849;DHT22;25518;47.878;15.914;2023-07-13T06:31:20;18.80;99.90
39849;DHT22;25518;47.878;15.914;2023-07-13T06:34:10;18.80;99.90
39849;DHT22;25518;47.878;15.914;2023-07-13T06:37:00;18.80;99.90
39849;DHT22;25518;47.878;15.914;2023-07-13T06:39:49;18.90;99.90
39849;DHT22;25518;47.878;15.914;2023-07-13T06:42:39;19.00;99.90
39849;DHT22;25518;47.878;15.914;2023-07-13T06:45:29;18.90;99.90
39849;DHT22;25518;47.878;15.914;2023-07-13T06:48:19;18.90;99.90
39849;DHT22;25518;47.878;15.914;2023-07-13T06:51:09;19.00;99.90
39849;DHT22;25518;47.878;15.914;2023-07-13T06:53:59;19.10;99.90
39849;DHT22;25518;47.878;15.914;2023-07-13T06:56:48;19.20;99.90
39849;DHT22;25518;47.878;15.914;2023-07-13T06:59:38;19.10;99.90
39849;DHT22;25518;47.878;15.914;2023-07-13T07:02:28;19.10;99.90
39849;DHT22;25518;47.878;15.914;2023-07-13T07:05:17;19.10;99.90
39849;DHT22;25518;47.878;15.914;2023-07-13T07:08:08;19.10;99.90
39849;DHT22;25518;47.878;15.914;2023-07-13T07:10:57;19.10;99.90
39849;DHT22;25518;47.878;15.914;2023-07-13T07:13:47;19.10;99.90
39849;DHT22;25518;47.878;15.914;2023-07-13T07:16:36;19.00;99.90
39849;DHT22;25518;47.878;15.914;2023-07-13T07:19:29;19.10;99.90
39849;DHT22;25518;47.878;15.914;2023-07-13T07:22:19;19.20;99.90
39849;DHT22;25518;47.878;15.914;2023-07-13T07:25:09;19.20;99.90
39849;DHT22;25518;47.878;15.914;2023-07-13T07:27:58;19.30;99.90
39849;DHT22;25518;47.878;15.914;2023-07-13T07:30:52;19.40;99.90
39849;DHT22;25518;47.878;15.914;2023-07-13T07:33:42;19.60;99.90
39849;DHT22;25518;47.878;15.914;2023-07-13T07:36:32;19.60;99.90
39849;DHT22;25518;47.878;15.914;2023-07-13T07:39:22;19.90;99.90
39849;DHT22;25518;47.878;15.914;2023-07-13T07:42:11;19.90;99.90
39849;DHT22;25518;47.878;15.914;2023-07-13T07:45:02;20.00;99.90
39849;DHT22;25518;47.878;15.914;2023-07-13T07:47:51;20.10;99.90
39849;DHT22;25518;47.878;15.914;2023-07-13T07:50:40;20.30;99.90
39849;DHT22;25518;47.878;15.914;2023-07-13T07:53:30;20.50;99.90
39849;DHT22;25518;47.878;15.914;2023-07-13T07:56:20;20.70;99.90
39849;DHT22;25518;47.878;15.914;2023-07-13T07:59:10;20.90;99.90
39849;DHT22;25518;47.878;15.914;2023-07-13T08:01:59;19.60;99.90
39849;DHT22;25518;47.878;15.914;2023-07-13T08:04:52;20.90;99.90
39849;DHT22;25518;47.878;15.914;2023-07-13T08:07:42;21.20;99.90
39849;DHT22;25518;47.878;15.914;2023-07-13T08:10:31;21.30;99.90
39849;DHT22;25518;47.878;15.914;2023-07-13T08:13:21;21.50;99.90
39849;DHT22;25518;47.878;15.914;2023-07-13T08:16:11;21.90;99.90
39849;DHT22;25518;47.878;15.914;2023-07-13T08:19:00;22.00;99.90
39849;DHT22;25518;47.878;15.914;2023-07-13T08:21:50;21.90;99.90
39849;DHT22;25518;47.878;15.914;2023-07-13T08:24:40;22.20;99.90
39849;DHT22;25518;47.878;15.914;2023-07-13T08:27:31;22.20;99.90
39849;DHT22;25518;47.878;15.914;2023-07-13T08:30:21;22.30;99.90
39849;DHT22;25518;47.878;15.914;2023-07-13T08:33:10;19.70;99.90
39849;DHT22;25518;47.878;15.914;2023-07-13T08:36:00;22.50;99.90
39849;DHT22;25518;47.878;15.914;2023-07-13T08:38:50;22.80;99.90
39849;DHT22;25518;47.878;15.914;2023-07-13T08:41:40;23.10;99.90
39849;DHT22;25518;47.878;15.914;2023-07-13T08:47:31;22.50;99.90
39849;DHT22;25518;47.878;15.914;2023-07-13T08:50:25;22.10;99.90
39849;DHT22;25518;47.878;15.914;2023-07-13T08:53:18;21.90;99.90
39849;DHT22;25518;47.878;15.914;2023-07-13T08:56:22;21.70;99.90
39849;DHT22;25518;47.878;15.914;2023-07-13T08:59:17;21.80;99.90
39849;DHT22;25518;47.878;15.914;2023-07-13T09:02:14;21.90;99.90
39849;DHT22;25518;47.878;15.914;2023-07-13T09:05:30;22.00;99.90
39849;DHT22;25518;47.878;15.914;2023-07-13T09:08:38;22.20;99.90
39849;DHT22;25518;47.878;15.914;2023-07-13T09:11:56;22.30;99.90
39849;DHT22;25518;47.878;15.914;2023-07-13T09:14:49;22.30;99.90
39849;DHT22;25518;47.878;15.914;2023-07-13T09:17:47;22.40;99.90
39849;DHT22;25518;47.878;15.914;2023-07-13T09:20:50;22.50;99.90
39849;DHT22;25518;47.878;15.914;2023-07-13T09:23:40;22.70;99.90
39849;DHT22;25518;47.878;15.914;2023-07-13T09:26:32;22.80;99.90
39849;DHT22;25518;47.878;15.914;2023-07-13T09:29:33;23.10;99.90
39849;DHT22;25518;47.878;15.914;2023-07-13T09:32:24;22.90;99.90
39849;DHT22;25518;47.878;15.914;2023-07-13T09:35:21;22.70;99.90
39849;DHT22;25518;47.878;15.914;2023-07-13T09:38:12;22.80;99.90
39849;DHT22;25518;47.878;15.914;2023-07-13T09:44:13;22.70;99.90
39849;DHT22;25518;47.878;15.914;2023-07-13T09:47:21;19.30;99.90
39849;DHT22;25518;47.878;15.914;2023-07-13T09:50:16;23.00;99.90
39849;DHT22;25518;47.878;15.914;2023-07-13T09:53:13;23.60;99.90
39849;DHT22;25518;47.878;15.914;2023-07-13T09:56:03;23.70;99.90
39849;DHT22;25518;47.878;15.914;2023-07-13T09:58:53;23.30;99.90
39849;DHT22;25518;47.878;15.914;2023-07-13T10:01:43;23.00;99.90
39849;DHT22;25518;47.878;15.914;2023-07-13T10:04:34;22.70;99.90
39849;DHT22;25518;47.878;15.914;2023-07-13T10:07:23;22.60;99.90
39849;DHT22;25518;47.878;15.914;2023-07-13T10:10:17;22.60;99.90
39849;DHT22;25518;47.878;15.914;2023-07-13T10:13:27;22.60;99.90
39849;DHT22;25518;47.878;15.914;2023-07-13T10:16:17;23.00;99.90
39849;DHT22;25518;47.878;15.914;2023-07-13T10:19:12;23.30;99.90
39849;DHT22;25518;47.878;15.914;2023-07-13T10:22:23;23.70;99.90
39849;DHT22;25518;47.878;15.914;2023-07-13T10:25:18;23.90;99.90
39849;DHT22;25518;47.878;15.914;2023-07-13T10:28:29;24.10;99.90
39849;DHT22;25518;47.878;15.914;2023-07-13T10:31:19;24.20;99.90
39849;DHT22;25518;47.878;15.914;2023-07-13T10:34:11;24.30;99.90
39849;DHT22;25518;47.878;15.914;2023-07-13T10:37:03;23.90;99.90
39849;DHT22;25518;47.878;15.914;2023-07-13T10:39:56;23.80;99.90
39849;DHT22;25518;47.878;15.914;2023-07-13T10:42:49;24.10;99.90
39849;DHT22;25518;47.878;15.914;2023-07-13T10:45:41;24.50;99.90
39849;DHT22;25518;47.878;15.914;2023-07-13T10:48:34;24.50;99.90
39849;DHT22;25518;47.878;15.914;2023-07-13T10:51:26;24.50;99.90
39849;DHT22;25518;47.878;15.914;2023-07-13T10:54:19;24.60;99.90
39849;DHT22;25518;47.878;15.914;2023-07-13T11:03:00;25.20;99.90
39849;DHT22;25518;47.878;15.914;2023-07-13T11:06:03;25.30;99.90
39849;DHT22;25518;47.878;15.914;2023-07-13T11:08:56;25.00;99.90
39849;DHT22;25518;47.878;15.914;2023-07-13T11:11:47;24.80;99.90
39849;DHT22;25518;47.878;15.914;2023-07-13T11:14:44;24.90;99.90
39849;DHT22;25518;47.878;15.914;2023-07-13T11:17:56;25.00;99.90
39849;DHT22;25518;47.878;15.914;2023-07-13T11:20:50;24.70;99.90
39849;DHT22;25518;47.878;15.914;2023-07-13T11:23:43;24.70;99.90
39849;DHT22;25518;47.878;15.914;2023-07-13T11:32:24;24.30;99.90
39849;DHT22;25518;47.878;15.914;2023-07-13T11:35:22;24.50;99.90
39849;DHT22;25518;47.878;15.914;2023-07-13T11:38:19;24.80;99.90
39849;DHT22;25518;47.878;15.914;2023-07-13T11:41:29;24.60;99.90
39849;DHT22;25518;47.878;15.914;2023-07-13T11:44:22;25.40;99.90
39849;DHT22;25518;47.878;15.914;2023-07-13T11:47:22;25.10;99.90
39849;DHT22;25518;47.878;15.914;2023-07-13T11:50:22;25.00;99.90
39849;DHT22;25518;47.878;15.914;2023-07-13T11:53:12;24.80;99.90
39849;DHT22;25518;47.878;15.914;2023-07-13T11:56:02;24.80;99.90
39849;DHT22;25518;47.878;15.914;2023-07-13T11:58:53;24.80;99.90
39849;DHT22;25518;47.878;15.914;2023-07-13T12:01:46;24.70;99.90
39849;DHT22;25518;47.878;15.914;2023-07-13T12:04:38;24.80;99.90
39849;DHT22;25518;47.878;15.914;2023-07-13T12:07:30;24.70;99.90
39849;DHT22;25518;47.878;15.914;2023-07-13T12:13:12;24.50;99.90
39849;DHT22;25518;47.878;15.914;2023-07-13T12:16:12;24.90;99.90
39849;DHT22;25518;47.878;15.914;2023-07-13T12:19:09;22.70;99.90
39849;DHT22;25518;47.878;15.914;2023-07-13T12:22:07;24.60;99.90
39849;DHT22;25518;47.878;15.914;2023-07-13T12:24:59;24.30;99.90
39849;DHT22;25518;47.878;15.914;2023-07-13T12:27:50;23.90;99.90
39849;DHT22;25518;47.878;15.914;2023-07-13T12:30:39;24.00;99.90
39849;DHT22;25518;47.878;15.914;2023-07-13T12:33:31;22.20;99.90
39849;DHT22;25518;47.878;15.914;2023-07-13T12:36:21;23.90;99.90
39849;DHT22;25518;47.878;15.914;2023-07-13T12:39:15;24.10;99.90
39849;DHT22;25518;47.878;15.914;2023-07-13T12:42:31;24.30;99.90
39849;DHT22;25518;47.878;15.914;2023-07-13T12:45:25;24.50;99.90
39849;DHT22;25518;47.878;15.914;2023-07-13T12:48:16;24.80;99.90
39849;DHT22;25518;47.878;15.914;2023-07-13T12:51:11;25.00;99.90
39849;DHT22;25518;47.878;15.914;2023-07-13T12:54:16;25.00;99.90
39849;DHT22;25518;47.878;15.914;2023-07-13T12:57:15;24.80;99.90
39849;DHT22;25518;47.878;15.914;2023-07-13T13:00:25;24.60;99.90
39849;DHT22;25518;47.878;15.914;2023-07-13T13:09:12;25.20;99.90
39849;DHT22;25518;47.878;15.914;2023-07-13T13:12:03;24.80;99.90
39849;DHT22;25518;47.878;15.914;2023-07-13T13:14:52;24.60;99.90
39849;DHT22;25518;47.878;15.914;2023-07-13T13:17:42;24.40;99.90
39849;DHT22;25518;47.878;15.914;2023-07-13T13:20:32;24.30;99.90
39849;DHT22;25518;47.878;15.914;2023-07-13T13:23:22;24.40;99.90
39849;DHT22;25518;47.878;15.914;2023-07-13T13:26:15;24.50;99.90
39849;DHT22;25518;47.878;15.914;2023-07-13T13:29:15;24.50;99.90
39849;DHT22;25518;47.878;15.914;2023-07-13T13:32:13;24.40;99.90
39849;DHT22;25518;47.878;15.914;2023-07-13T13:35:03;24.10;99.90
39849;DHT22;25518;47.878;15.914;2023-07-13T13:37:52;24.00;99.90
39849;DHT22;25518;47.878;15.914;2023-07-13T13:40:43;24.10;99.90
39849;DHT22;25518;47.878;15.914;2023-07-13T13:43:33;24.20;99.90
39849;DHT22;25518;47.878;15.914;2023-07-13T13:46:24;24.20;99.90
39849;DHT22;25518;47.878;15.914;2023-07-13T13:49:17;23.90;99.90
39849;DHT22;25518;47.878;15.914;2023-07-13T13:52:08;23.80;99.90
39849;DHT22;25518;47.878;15.914;2023-07-13T13:54:59;23.70;99.90
39849;DHT22;25518;47.878;15.914;2023-07-13T13:57:48;23.50;99.90
39849;DHT22;25518;47.878;15.914;2023-07-13T14:00:39;23.40;99.90
39849;DHT22;25518;47.878;15.914;2023-07-13T14:03:29;23.40;99.90
39849;DHT22;25518;47.878;15.914;2023-07-13T14:06:19;23.30;99.90
39849;DHT22;25518;47.878;15.914;2023-07-13T14:09:12;23.20;99.90
39849;DHT22;25518;47.878;15.914;2023-07-13T14:12:02;23.30;99.90
39849;DHT22;25518;47.878;15.914;2023-07-13T14:14:52;23.40;99.90
39849;DHT22;25518;47.878;15.914;2023-07-13T14:17:42;23.50;99.90
39849;DHT22;25518;47.878;15.914;2023-07-13T14:20:32;23.70;99.90
39849;DHT22;25518;47.878;15.914;2023-07-13T14:23:22;23.80;99.90
39849;DHT22;25518;47.878;15.914;2023-07-13T14:26:14;24.00;99.90
39849;DHT22;25518;47.878;15.914;2023-07-13T14:29:08;24.10;99.90
39849;DHT22;25518;47.878;15.914;2023-07-13T14:32:00;23.90;99.90
39849;DHT22;25518;47.878;15.914;2023-07-13T14:34:49;23.70;99.90
39849;DHT22;25518;47.878;15.914;2023-07-13T14:37:41;23.70;99.90
39849;DHT22;25518;47.878;15.914;2023-07-13T14:40:32;23.60;99.90
39849;DHT22;25518;47.878;15.914;2023-07-13T14:43:21;23.60;99.90
39849;DHT22;25518;47.878;15.914;2023-07-13T14:46:34;23.50;99.90
39849;DHT22;25518;47.878;15.914;2023-07-13T14:49:41;23.40;99.90
39849;DHT22;25518;47.878;15.914;2023-07-13T14:52:32;23.40;99.90
39849;DHT22;25518;47.878;15.914;2023-07-13T14:55:21;23.40;99.90
39849;DHT22;25518;47.878;15.914;2023-07-13T14:58:11;23.40;99.90
39849;DHT22;25518;47.878;15.914;2023-07-13T15:01:01;23.50;99.90
39849;DHT22;25518;47.878;15.914;2023-07-13T15:03:51;23.50;99.90
39849;DHT22;25518;47.878;15.914;2023-07-13T15:06:59;23.30;99.90
39849;DHT22;25518;47.878;15.914;2023-07-13T15:09:51;22.90;99.90
39849;DHT22;25518;47.878;15.914;2023-07-13T15:12:41;22.80;99.90
39849;DHT22;25518;47.878;15.914;2023-07-13T15:15:32;22.70;99.90
39849;DHT22;25518;47.878;15.914;2023-07-13T15:18:24;22.60;99.90
39849;DHT22;25518;47.878;15.914;2023-07-13T15:21:20;22.50;99.90
39849;DHT22;25518;47.878;15.914;2023-07-13T15:24:10;22.50;99.90
39849;DHT22;25518;47.878;15.914;2023-07-13T15:27:00;22.30;99.90
39849;DHT22;25518;47.878;15.914;2023-07-13T15:29:50;22.20;99.90
39849;DHT22;25518;47.878;15.914;2023-07-13T15:32:42;22.10;99.90
39849;DHT22;25518;47.878;15.914;2023-07-13T15:35:33;22.20;99.90
39849;DHT22;25518;47.878;15.914;2023-07-13T15:38:25;22.00;99.90
39849;DHT22;25518;47.878;15.914;2023-07-13T15:41:25;21.90;99.90
39849;DHT22;25518;47.878;15.914;2023-07-13T15:44:28;21.80;99.90
39849;DHT22;25518;47.878;15.914;2023-07-13T15:47:18;21.80;99.90
39849;DHT22;25518;47.878;15.914;2023-07-13T15:50:12;21.60;99.90
39849;DHT22;25518;47.878;15.914;2023-07-13T15:53:02;21.40;99.90
39849;DHT22;25518;47.878;15.914;2023-07-13T15:55:53;21.20;99.90
39849;DHT22;25518;47.878;15.914;2023-07-13T15:58:42;21.10;99.90
39849;DHT22;25518;47.878;15.914;2023-07-13T16:01:33;21.00;99.90
39849;DHT22;25518;47.878;15.914;2023-07-13T16:04:22;20.90;99.90
39849;DHT22;25518;47.878;15.914;2023-07-13T16:07:15;20.90;99.90
39849;DHT22;25518;47.878;15.914;2023-07-13T16:10:12;20.90;99.90
39849;DHT22;25518;47.878;15.914;2023-07-13T16:13:02;20.80;99.90
39849;DHT22;25518;47.878;15.914;2023-07-13T16:15:54;20.80;99.90
39849;DHT22;25518;47.878;15.914;2023-07-13T16:18:45;20.80;99.90
39849;DHT22;25518;47.878;15.914;2023-07-13T16:21:47;20.70;99.90
39849;DHT22;25518;47.878;15.914;2023-07-13T16:24:37;20.40;99.90
39849;DHT22;25518;47.878;15.914;2023-07-13T16:27:27;20.50;99.90
39849;DHT22;25518;47.878;15.914;2023-07-13T16:30:21;20.40;99.90
39849;DHT22;25518;47.878;15.914;2023-07-13T16:33:11;20.10;99.90
39849;DHT22;25518;47.878;15.914;2023-07-13T16:36:01;19.90;99.90
39849;DHT22;25518;47.878;15.914;2023-07-13T16:38:51;19.80;99.90
39849;DHT22;25518;47.878;15.914;2023-07-13T16:41:41;19.80;99.90
39849;DHT22;25518;47.878;15.914;2023-07-13T16:44:31;19.70;99.90
39849;DHT22;25518;47.878;15.914;2023-07-13T16:47:22;19.40;99.90
39849;DHT22;25518;47.878;15.914;2023-07-13T16:50:23;19.50;99.90
39849;DHT22;25518;47.878;15.914;2023-07-13T16:53:20;19.50;99.90
39849;DHT22;25518;47.878;15.914;2023-07-13T16:56:15;19.60;99.90
39849;DHT22;25518;47.878;15.914;2023-07-13T16:59:14;19.60;99.90
39849;DHT22;25518;47.878;15.914;2023-07-13T17:02:33;19.50;99.90
39849;DHT22;25518;47.878;15.914;2023-07-13T17:05:24;19.50;99.90
39849;DHT22;25518;47.878;15.914;2023-07-13T17:11:09;19.40;99.90
39849;DHT22;25518;47.878;15.914;2023-07-13T17:13:58;19.50;99.90
39849;DHT22;25518;47.878;15.914;2023-07-13T17:16:50;19.50;99.90
39849;DHT22;25518;47.878;15.914;2023-07-13T17:19:40;19.60;99.90
39849;DHT22;25518;47.878;15.914;2023-07-13T17:22:30;19.60;99.90
39849;DHT22;25518;47.878;15.914;2023-07-13T17:25:21;19.70;99.90
39849;DHT22;25518;47.878;15.914;2023-07-13T17:28:15;19.70;99.90
39849;DHT22;25518;47.878;15.914;2023-07-13T17:31:06;19.80;99.90
39849;DHT22;25518;47.878;15.914;2023-07-13T17:33:57;17.90;99.90
39849;DHT22;25518;47.878;15.914;2023-07-13T17:36:47;19.90;99.90
39849;DHT22;25518;47.878;15.914;2023-07-13T17:39:36;20.00;99.90
39849;DHT22;25518;47.878;15.914;2023-07-13T17:42:26;19.90;99.90
39849;DHT22;25518;47.878;15.914;2023-07-13T17:45:16;19.90;99.90
39849;DHT22;25518;47.878;15.914;2023-07-13T17:48:09;20.00;99.90
39849;DHT22;25518;47.878;15.914;2023-07-13T17:51:01;20.10;99.90
39849;DHT22;25518;47.878;15.914;2023-07-13T17:53:51;19.60;99.90
39849;DHT22;25518;47.878;15.914;2023-07-13T17:56:41;20.00;99.90
39849;DHT22;25518;47.878;15.914;2023-07-13T17:59:30;19.90;99.90
39849;DHT22;25518;47.878;15.914;2023-07-13T18:02:21;19.70;99.90
39849;DHT22;25518;47.878;15.914;2023-07-13T18:05:12;19.70;99.90
39849;DHT22;25518;47.878;15.914;2023-07-13T18:08:04;19.60;99.90
39849;DHT22;25518;47.878;15.914;2023-07-13T18:10:59;19.80;99.90
39849;DHT22;25518;47.878;15.914;2023-07-13T18:13:50;19.70;99.90
39849;DHT22;25518;47.878;15.914;2023-07-13T18:16:45;19.70;99.90
39849;DHT22;25518;47.878;15.914;2023-07-13T18:19:40;19.60;99.90
39849;DHT22;25518;47.878;15.914;2023-07-13T18:22:30;19.60;99.90
39849;DHT22;25518;47.878;15.914;2023-07-13T18:25:22;19.60;99.90
39849;DHT22;25518;47.878;15.914;2023-07-13T18:28:13;19.60;99.90
39849;DHT22;25518;47.878;15.914;2023-07-13T18:31:04;19.60;99.90
39849;DHT22;25518;47.878;15.914;2023-07-13T18:33:54;19.50;99.90
39849;DHT22;25518;47.878;15.914;2023-07-13T18:36:44;19.30;99.90